KTDZ

Toledo Executive Airport

Toledo, Ohio, USA
METAR KTDZ 201153Z AUTO 23013KT 10SM CLR 00/M04 A2992 RMK AO2 SLP138 T00001044 10011 21006 53018
Observed Flight Rules
Jan-20 @ 11:53 UTC (an hour ago) Visual Flight Rules
Wind Visibility Clouds
230° at 13 knots 10 miles
  • Clear skies
Temperatures Readings
Current 0°C / 32°F
Dewpoint -4°C / 25°F
Humidity 75%
Altimeter 29.92" Hg
Pressure 1013.8 hPa
Elevation 189
METAR KTDZ 201153Z AUTO 23013KT 10SM CLR 00/M04 A2992 RMK AO2 SLP138 T00001044 10011 21006 53018
Observed Flight Rules
Jan-20 @ 11:53 UTC
(an hour ago)
VFR
Wind Visibility
230° at 13 knots 10 miles
Clouds
  • Clear skies
Temperature Dewpoint
0°C / 32°F -4°C / 25°F
Humidity Altimeter Pressure
75% 29.92" Hg 1013.8 hPa